createdAt,value
2019-04-23T00:02:45.854Z,6.45
2019-04-23T00:04:55.011Z,6.53
2019-04-23T00:07:49.822Z,5.95
2019-04-23T00:10:09.590Z,6.60
2019-04-23T00:12:44.123Z,6.10
2019-04-23T00:17:38.545Z,7.75
2019-04-23T00:20:06.467Z,7.33
2019-04-23T00:22:36.566Z,6.58
2019-04-23T00:25:41.551Z,7.12
2019-04-23T00:30:18.753Z,6.58
2019-04-23T00:32:48.074Z,7.20
2019-04-23T00:35:12.886Z,7.15
2019-04-23T00:37:44.402Z,7.35
2019-04-23T00:40:20.368Z,7.42
2019-04-23T00:42:47.940Z,6.87
2019-04-23T00:45:16.612Z,7.17
2019-04-23T00:47:49.658Z,6.83
2019-04-23T00:50:22.879Z,6.75
2019-04-23T00:52:45.855Z,6.72
2019-04-23T00:55:35.604Z,7.65
2019-04-23T00:57:48.466Z,7.40
2019-04-23T01:00:28.167Z,7.10
2019-04-23T01:02:54.670Z,7.75
2019-04-23T01:05:24.810Z,7.75
2019-04-23T01:07:50.014Z,7.78
2019-04-23T01:10:53.980Z,7.53
2019-04-23T01:13:22.920Z,7.50
2019-04-23T01:15:53.674Z,8.63
2019-04-23T01:20:53.753Z,8.00
2019-04-23T01:23:41.835Z,8.03
2019-04-23T01:26:26.432Z,8.58
2019-04-23T01:29:03.027Z,8.55
2019-04-23T01:31:48.014Z,8.68
2019-04-23T01:33:55.462Z,8.30
2019-04-23T01:39:05.053Z,8.83
2019-04-23T01:41:33.963Z,8.73
2019-04-23T01:43:58.240Z,8.63
2019-04-23T01:46:35.763Z,8.70
2019-04-23T01:49:07.859Z,8.38
2019-04-23T01:51:39.871Z,8.20
2019-04-23T01:54:04.569Z,9.48
2019-04-23T01:56:33.441Z,9.63
2019-04-23T01:59:07.874Z,7.75
2019-04-23T02:01:43.323Z,8.13
2019-04-23T02:04:11.298Z,8.65
2019-04-23T02:06:40.611Z,9.50
2019-04-23T02:09:10.015Z,9.18
2019-04-23T02:11:37.678Z,9.60
2019-04-23T02:14:09.589Z,9.25
2019-04-23T02:16:39.136Z,9.03
2019-04-23T02:19:12.937Z,10.25
2019-04-23T02:21:55.046Z,9.20
2019-04-23T02:24:17.716Z,8.83
2019-04-23T02:26:48.702Z,9.55
2019-04-23T02:32:01.528Z,9.68
2019-04-23T02:39:29.169Z,10.23
2019-04-23T02:42:07.335Z,10.65
2019-04-23T02:44:24.088Z,11.38
2019-04-23T02:49:35.791Z,9.98
2019-04-23T02:51:58.877Z,10.20
2019-04-23T02:57:01.304Z,8.55
2019-04-23T03:07:22.338Z,10.68
2019-04-23T03:14:55.773Z,11.12
2019-04-23T03:17:25.960Z,10.68
2019-04-23T03:22:56.016Z,11.55
2019-04-23T03:25:33.897Z,11.83
2019-04-23T03:27:50.984Z,12.28
2019-04-23T03:30:49.448Z,10.88
2019-04-23T03:35:09.291Z,10.50
2019-04-23T03:37:58.161Z,11.57
2019-04-23T03:40:21.114Z,11.45
2019-04-23T03:48:00.820Z,13.15
2019-04-23T03:50:30.038Z,13.22
2019-04-23T03:52:55.283Z,12.18
2019-04-23T03:55:37.362Z,13.25
2019-04-23T04:00:37.238Z,12.73
2019-04-23T04:08:06.796Z,13.13
2019-04-23T04:10:41.611Z,11.57
2019-04-23T04:12:56.990Z,13.10
2019-04-23T04:18:28.532Z,14.13
2019-04-23T04:20:39.697Z,15.40
2019-04-23T04:25:33.668Z,13.62
2019-04-23T04:28:17.844Z,13.30
2019-04-23T04:30:40.998Z,15.32
2019-04-23T04:33:16.626Z,14.95
2019-04-23T04:35:47.713Z,14.38
2019-04-23T04:38:22.419Z,13.78
2019-04-23T04:40:55.302Z,14.60
2019-04-23T04:43:13.817Z,15.28
2019-04-23T04:45:49.809Z,14.78
2019-04-23T04:47:59.124Z,13.08
2019-04-23T04:50:46.993Z,12.88
2019-04-23T04:58:15.877Z,12.88
2019-04-23T05:00:54.217Z,11.05
2019-04-23T05:08:19.550Z,11.93
2019-04-23T05:10:55.876Z,12.18
2019-04-23T05:15:53.903Z,12.82
2019-04-23T05:20:54.830Z,12.07
2019-04-23T05:23:28.116Z,12.63
2019-04-23T05:25:51.594Z,13.38
2019-04-23T05:28:24.536Z,13.45
2019-04-23T05:30:52.036Z,11.95
2019-04-23T05:33:23.882Z,11.33
2019-04-23T05:40:53.642Z,12.58
2019-04-23T05:43:27.840Z,10.40
2019-04-23T05:46:17.511Z,11.53
2019-04-23T05:48:31.123Z,10.88
2019-04-23T05:50:58.819Z,10.72
2019-04-23T05:53:27.257Z,10.38
2019-04-23T05:55:55.477Z,10.85
2019-04-23T05:58:28.873Z,10.70
2019-04-23T06:01:08.330Z,14.20
2019-04-23T06:03:30.072Z,11.90
2019-04-23T06:06:08.165Z,13.25
2019-04-23T06:08:32.138Z,14.40
2019-04-23T06:11:02.006Z,12.60
2019-04-23T06:13:36.207Z,19.48
2019-04-23T06:15:58.020Z,15.50
2019-04-23T06:18:38.938Z,16.45
2019-04-23T06:21:03.066Z,23.77
2019-04-23T06:23:38.581Z,23.90
2019-04-23T06:28:36.405Z,25.50
2019-04-23T06:31:06.322Z,35.13
2019-04-23T06:33:33.686Z,37.90
2019-04-23T06:36:10.643Z,31.40
2019-04-23T06:38:53.392Z,51.00
2019-04-23T06:41:06.838Z,26.27
2019-04-23T06:43:43.735Z,42.53
2019-04-23T06:46:09.990Z,81.37
2019-04-23T06:48:45.467Z,47.98
2019-04-23T06:51:11.203Z,23.20
2019-04-23T06:53:35.874Z,23.27
2019-04-23T06:56:11.317Z,18.87
2019-04-23T06:58:42.919Z,29.95
2019-04-23T07:03:45.150Z,20.27
2019-04-23T07:06:24.607Z,9.90
2019-04-23T07:11:29.075Z,7.28
2019-04-23T07:13:54.580Z,7.08
2019-04-23T07:16:14.640Z,7.60
2019-04-23T07:18:50.373Z,7.28
2019-04-23T07:21:22.042Z,6.97
2019-04-23T07:24:00.383Z,7.85
2019-04-23T07:26:29.690Z,7.60
2019-04-23T07:28:54.638Z,7.22
2019-04-23T07:31:28.437Z,7.75
2019-04-23T07:36:32.688Z,6.42
2019-04-23T07:39:01.524Z,7.03
2019-04-23T07:41:43.392Z,7.83
2019-04-23T07:44:08.589Z,7.22
2019-04-23T07:46:45.075Z,7.85
2019-04-23T07:49:10.355Z,8.08
2019-04-23T07:51:46.880Z,8.75
2019-04-23T07:54:16.325Z,7.83
2019-04-23T07:56:41.930Z,7.35
2019-04-23T07:59:14.186Z,8.93
2019-04-23T08:01:47.112Z,8.55
2019-04-23T08:04:10.651Z,8.13
2019-04-23T08:06:37.590Z,9.30
2019-04-23T08:09:10.931Z,8.60
2019-04-23T08:11:42.586Z,8.75
2019-04-23T08:14:08.623Z,8.45
2019-04-23T08:16:46.985Z,8.93
2019-04-23T08:19:14.240Z,8.80
2019-04-23T08:21:43.830Z,8.85
2019-04-23T08:24:10.435Z,9.18
2019-04-23T08:29:28.008Z,9.60
2019-04-23T08:32:06.902Z,8.33
2019-04-23T08:34:40.087Z,8.93
2019-04-23T08:37:04.575Z,8.78
2019-04-23T08:39:38.608Z,8.60
2019-04-23T08:42:28.743Z,9.30
2019-04-23T08:45:05.542Z,9.18
2019-04-23T08:54:56.813Z,8.58
2019-04-23T08:57:14.506Z,9.45
2019-04-23T09:03:02.748Z,8.63
2019-04-23T09:07:22.400Z,9.90
2019-04-23T09:09:51.060Z,8.93
2019-04-23T09:12:23.706Z,10.40
2019-04-23T09:14:54.348Z,9.48
2019-04-23T09:17:19.707Z,8.55
2019-04-23T09:20:07.112Z,8.88
2019-04-23T09:22:34.679Z,9.48
2019-04-23T09:25:01.279Z,9.33
2019-04-23T09:30:07.076Z,9.50
2019-04-23T09:35:08.459Z,10.03
2019-04-23T09:40:09.059Z,9.23
2019-04-23T09:45:22.486Z,9.60
2019-04-23T09:53:12.980Z,9.20
2019-04-23T09:55:35.629Z,9.75
2019-04-23T09:58:03.142Z,10.03
2019-04-23T10:00:42.087Z,9.80
2019-04-23T10:02:53.472Z,10.23
2019-04-23T10:05:26.511Z,10.30
2019-04-23T10:07:53.355Z,9.73
2019-04-23T10:10:14.285Z,8.73
2019-04-23T10:12:44.064Z,10.13
2019-04-23T10:15:22.765Z,9.95
2019-04-23T10:17:46.302Z,9.63
2019-04-23T10:20:16.383Z,9.70
2019-04-23T10:22:46.283Z,9.30
2019-04-23T10:25:17.061Z,9.88
2019-04-23T10:27:53.152Z,10.18
2019-04-23T10:30:17.525Z,9.30
2019-04-23T10:32:47.569Z,9.60
2019-04-23T10:35:25.631Z,9.30
2019-04-23T10:37:55.971Z,9.75
2019-04-23T10:40:25.475Z,9.90
2019-04-23T10:42:50.153Z,9.88
2019-04-23T10:45:39.638Z,10.98
2019-04-23T10:48:33.057Z,9.45
2019-04-23T10:51:22.745Z,9.98
2019-04-23T10:53:31.351Z,10.15
2019-04-23T10:56:02.586Z,11.10
2019-04-23T10:58:31.506Z,11.10
2019-04-23T11:01:06.326Z,10.63
2019-04-23T11:03:48.987Z,11.50
2019-04-23T11:06:06.695Z,11.10
2019-04-23T11:08:38.719Z,10.75
2019-04-23T11:11:12.354Z,10.28
2019-04-23T11:13:38.271Z,10.82
2019-04-23T11:18:53.627Z,10.88
2019-04-23T11:21:13.695Z,9.43
2019-04-23T11:23:43.068Z,10.68
2019-04-23T11:26:19.918Z,10.50
2019-04-23T11:28:38.346Z,10.08
2019-04-23T11:31:25.600Z,9.43
2019-04-23T11:36:41.087Z,9.68
2019-04-23T11:41:27.530Z,10.20
2019-04-23T11:43:46.513Z,9.63
2019-04-23T11:49:22.551Z,10.82
2019-04-23T11:51:07.544Z,10.35
2019-04-23T11:53:51.049Z,9.98
2019-04-23T11:56:48.725Z,11.22
2019-04-23T11:58:44.572Z,11.83
2019-04-23T12:04:05.673Z,11.50
2019-04-23T12:06:41.684Z,10.55
2019-04-23T12:09:18.622Z,11.08
2019-04-23T12:17:20.874Z,12.07
2019-04-23T12:19:57.648Z,10.70
2019-04-23T12:27:26.123Z,9.63
2019-04-23T12:29:46.275Z,9.75
2019-04-23T12:37:34.550Z,9.85
2019-04-23T12:40:05.913Z,10.53
2019-04-23T12:42:55.566Z,10.10
2019-04-23T12:55:23.160Z,9.50
2019-04-23T13:00:07.148Z,10.23
2019-04-23T13:02:52.416Z,9.43
2019-04-23T13:05:11.898Z,10.78
2019-04-23T13:07:43.259Z,9.00
2019-04-23T13:10:09.158Z,9.58
2019-04-23T13:15:11.544Z,9.78
2019-04-23T13:17:50.592Z,9.50
2019-04-23T13:22:53.523Z,8.33
2019-04-23T13:25:19.643Z,8.45
2019-04-23T13:30:31.590Z,9.38
2019-04-23T13:32:59.025Z,9.10
2019-04-23T13:35:38.399Z,9.08
2019-04-23T13:40:32.121Z,8.80
2019-04-23T13:43:06.957Z,8.75
2019-04-23T13:45:51.131Z,9.03
2019-04-23T13:48:00.676Z,8.03
2019-04-23T13:50:34.592Z,9.15
2019-04-23T13:55:22.822Z,9.00
2019-04-23T14:00:39.036Z,8.93
2019-04-23T14:02:57.379Z,8.80
2019-04-23T14:08:05.304Z,10.18
2019-04-23T14:10:35.435Z,9.80
2019-04-23T14:13:20.674Z,9.13
2019-04-23T14:15:42.794Z,8.68
2019-04-23T14:18:29.198Z,8.80
2019-04-23T14:20:31.583Z,8.73
2019-04-23T14:23:17.411Z,8.78
2019-04-23T14:25:45.481Z,8.30
2019-04-23T14:33:23.271Z,8.35
2019-04-23T14:35:42.619Z,8.20
2019-04-23T14:40:43.429Z,9.68
2019-04-23T14:43:14.935Z,9.00
2019-04-23T14:46:23.454Z,8.90
2019-04-23T14:48:23.347Z,9.38
2019-04-23T14:51:11.180Z,9.38
2019-04-23T14:56:11.254Z,8.88
2019-04-23T14:58:42.489Z,9.78
2019-04-23T15:06:33.189Z,8.35
2019-04-23T15:11:20.902Z,8.70
2019-04-23T15:13:44.801Z,7.85
2019-04-23T15:16:20.839Z,8.10
2019-04-23T15:18:58.085Z,8.68
2019-04-23T15:24:00.248Z,9.03
2019-04-23T15:28:30.302Z,9.33
2019-04-23T15:34:02.228Z,10.05
2019-04-23T15:36:32.679Z,9.48
2019-04-23T15:39:08.819Z,9.15
2019-04-23T15:46:33.002Z,9.55
2019-04-23T15:51:47.901Z,8.88
2019-04-23T15:54:00.868Z,9.90
2019-04-23T15:56:35.879Z,9.10
2019-04-23T16:01:29.057Z,10.18
2019-04-23T16:03:31.470Z,10.55
2019-04-23T16:06:00.053Z,10.45
2019-04-23T16:09:04.861Z,10.53
2019-04-23T16:14:17.779Z,10.18
2019-04-23T16:19:07.234Z,11.45
2019-04-23T16:21:48.347Z,10.40
2019-04-23T16:24:11.031Z,10.60
2019-04-23T16:26:39.164Z,11.08
2019-04-23T16:29:27.483Z,10.45
2019-04-23T16:31:39.926Z,11.53
2019-04-23T16:34:14.133Z,10.93
2019-04-23T16:36:41.556Z,10.72
2019-04-23T16:39:07.369Z,11.35
2019-04-23T16:41:42.308Z,11.30
2019-04-23T16:44:16.895Z,10.58
2019-04-23T16:46:42.092Z,11.22
2019-04-23T16:49:15.234Z,10.53
2019-04-23T16:51:32.561Z,11.05
2019-04-23T16:54:32.630Z,11.95
2019-04-23T16:56:55.355Z,10.95
2019-04-23T16:59:15.400Z,11.80
2019-04-23T17:01:44.282Z,11.35
2019-04-23T17:04:18.148Z,11.95
2019-04-23T17:06:44.318Z,11.75
2019-04-23T17:09:15.732Z,12.20
2019-04-23T17:11:42.566Z,11.70
2019-04-23T17:14:21.584Z,12.07
2019-04-23T17:19:19.264Z,11.12
2019-04-23T17:21:44.439Z,11.73
2019-04-23T17:26:52.725Z,12.33
2019-04-23T17:29:21.706Z,12.47
2019-04-23T17:31:59.065Z,12.40
2019-04-23T17:37:03.239Z,11.90
2019-04-23T17:39:41.385Z,12.33
2019-04-23T17:45:02.012Z,11.70
2019-04-23T17:47:31.288Z,12.55
2019-04-23T17:52:33.548Z,12.35
2019-04-23T17:55:07.650Z,12.07
2019-04-23T17:57:32.495Z,11.85
2019-04-23T18:00:21.977Z,11.45
2019-04-23T18:02:53.328Z,12.35
2019-04-23T18:05:06.504Z,12.90
2019-04-23T18:10:24.764Z,11.35
2019-04-23T18:15:03.460Z,12.55
2019-04-23T18:17:52.571Z,12.33
2019-04-23T18:20:13.406Z,12.35
2019-04-23T18:22:47.244Z,11.75
2019-04-23T18:25:16.512Z,12.25
2019-04-23T18:27:50.819Z,12.30
2019-04-23T18:35:25.909Z,12.35
2019-04-23T18:38:00.540Z,12.63
2019-04-23T18:40:28.592Z,11.65
2019-04-23T18:43:21.121Z,11.88
2019-04-23T18:45:45.406Z,12.73
2019-04-23T18:48:04.469Z,12.15
2019-04-23T18:50:44.576Z,12.50
2019-04-23T18:53:02.845Z,11.88
2019-04-23T18:55:48.776Z,12.37
2019-04-23T18:58:04.129Z,12.88
2019-04-23T19:00:53.272Z,12.65
2019-04-23T19:03:19.761Z,13.03
2019-04-23T19:06:13.270Z,13.13
2019-04-23T19:08:54.932Z,12.68
2019-04-23T19:11:14.474Z,11.65
2019-04-23T19:13:41.087Z,12.60
2019-04-23T19:16:07.207Z,13.00
2019-04-23T19:18:40.506Z,12.45
2019-04-23T19:26:15.779Z,12.18
2019-04-23T19:28:52.486Z,11.75
2019-04-23T19:31:33.263Z,12.20
2019-04-23T19:39:11.954Z,12.55
2019-04-23T19:41:49.602Z,11.70
2019-04-23T19:44:08.677Z,12.50
2019-04-23T19:49:05.676Z,12.28
2019-04-23T19:51:42.207Z,12.88
2019-04-23T19:54:17.157Z,11.75
2019-04-23T19:59:15.367Z,11.50
2019-04-23T20:01:46.916Z,11.50
2019-04-23T20:04:04.203Z,11.57
2019-04-23T20:09:29.493Z,11.40
2019-04-23T20:14:22.021Z,11.03
2019-04-23T20:19:18.256Z,11.00
2019-04-23T20:21:51.075Z,10.45
2019-04-23T20:26:50.780Z,11.48
2019-04-23T20:37:06.527Z,10.43
2019-04-23T20:39:45.541Z,9.70
2019-04-23T20:42:12.319Z,9.83
2019-04-23T20:47:13.314Z,9.30
2019-04-23T20:49:48.534Z,9.78
2019-04-23T20:52:10.318Z,8.75
2019-04-23T20:54:56.880Z,9.78
2019-04-23T21:00:01.618Z,10.45
2019-04-23T21:02:52.438Z,9.40
2019-04-23T21:05:10.065Z,8.85
2019-04-23T21:10:18.105Z,9.15
2019-04-23T21:15:12.167Z,8.75
2019-04-23T21:17:58.212Z,8.88
2019-04-23T21:20:14.664Z,8.95
2019-04-23T21:22:41.133Z,8.78
2019-04-23T21:25:09.740Z,8.60
2019-04-23T21:28:06.338Z,8.45
2019-04-23T21:30:08.571Z,8.88
2019-04-23T21:32:52.672Z,8.30
2019-04-23T21:37:58.888Z,8.33
2019-04-23T21:40:56.315Z,8.25
2019-04-23T21:45:48.631Z,8.35
2019-04-23T21:48:08.365Z,8.15
2019-04-23T21:50:58.106Z,8.13
2019-04-23T21:53:10.097Z,8.70
2019-04-23T21:55:48.450Z,8.58
2019-04-23T21:58:20.034Z,7.78
2019-04-23T22:00:53.583Z,8.20
2019-04-23T22:03:17.931Z,8.18
2019-04-23T22:05:51.265Z,7.75
2019-04-23T22:08:06.869Z,8.63
2019-04-23T22:11:00.453Z,11.38
2019-04-23T22:13:19.926Z,9.68
2019-04-23T22:18:12.699Z,7.90
2019-04-23T22:20:55.892Z,8.35
2019-04-23T22:23:19.555Z,8.40
2019-04-23T22:26:07.828Z,10.15
2019-04-23T22:28:16.368Z,7.97
2019-04-23T22:33:19.589Z,8.35
2019-04-23T22:35:55.585Z,8.95
2019-04-23T22:38:20.414Z,8.38
2019-04-23T22:40:58.174Z,8.63
2019-04-23T22:43:20.837Z,8.35
2019-04-23T22:46:11.729Z,8.35
2019-04-23T22:48:23.583Z,8.48
2019-04-23T22:51:04.889Z,9.15
2019-04-23T22:53:13.805Z,8.93
2019-04-23T22:56:01.635Z,9.58
2019-04-23T22:58:20.020Z,9.25
2019-04-23T23:01:10.695Z,9.55
2019-04-23T23:06:10.972Z,9.48
2019-04-23T23:11:02.251Z,8.83
2019-04-23T23:13:48.129Z,10.23
2019-04-23T23:16:10.607Z,9.83
2019-04-23T23:21:07.993Z,9.45
2019-04-23T23:23:30.078Z,10.10
2019-04-23T23:28:35.260Z,9.48
2019-04-23T23:31:06.984Z,9.65
2019-04-23T23:33:42.910Z,9.85
2019-04-23T23:36:23.276Z,9.53
2019-04-23T23:39:02.773Z,9.78
2019-04-23T23:41:26.419Z,9.40
2019-04-23T23:44:18.082Z,9.78
2019-04-23T23:48:57.089Z,10.43
2019-04-23T23:51:29.467Z,10.03
2019-04-23T23:54:02.287Z,10.43
2019-04-23T23:56:19.500Z,10.63
2019-04-23T23:59:03.794Z,12.88
